Time;durP1;ratioP1;P1;durP2;ratioP2;P2;SDS_P1;SDS_P2;PMS_P1;PMS_P2;Temp;Humidity;BMP_temperature;BMP_pressure;BME280_temperature;BME280_humidity;BME280_pressure;Samples;Min_cycle;Max_cycle;Signal;HPM_P1;HPM_P2
2021/05/02 00:01:33;;;;;;;;;16.50;15.25;;;;;;;;3724548;37;21222;-60
2021/05/02 00:03:59;;;;;;;;;16.50;16.00;;;;;;;;3724494;37;21239;-59
2021/05/02 00:06:25;;;;;;;;;15.25;15.25;;;;;;;;3725194;38;18315;-60
2021/05/02 00:08:51;;;;;;;;;16.00;15.25;;;;;;;;3724885;38;21179;-60
2021/05/02 00:11:17;;;;;;;;;17.75;17.00;;;;;;;;3724888;37;21199;-60
2021/05/02 00:13:43;;;;;;;;;16.50;16.50;;;;;;;;3724914;37;18095;-60
2021/05/02 00:16:09;;;;;;;;;15.50;14.25;;;;;;;;3725036;37;18103;-60
2021/05/02 00:18:36;;;;;;;;;15.75;15.75;;;;;;;;3725137;37;18098;-60
2021/05/02 00:21:06;;;;;;;;;18.50;17.75;;;;;;;;3725119;37;21190;-60
2021/05/02 00:23:37;;;;;;;;;18.50;17.75;;;;;;;;3724984;37;21203;-60
2021/05/02 00:26:04;;;;;;;;;16.50;15.75;;;;;;;;3727575;37;21180;-60
2021/05/02 00:28:31;;;;;;;;;16.00;15.00;;;;;;;;3725819;38;21235;-61
2021/05/02 00:30:58;;;;;;;;;19.75;17.75;;;;;;;;3725519;37;21180;-60
2021/05/02 00:33:24;;;;;;;;;18.75;17.50;;;;;;;;3725508;37;21166;-60
2021/05/02 00:35:52;;;;;;;;;16.25;16.25;;;;;;;;3725735;37;21139;-63
2021/05/02 00:38:18;;;;;;;;;18.00;16.75;;;;;;;;3730954;37;18043;-60
2021/05/02 00:40:45;;;;;;;;;15.50;15.00;;;;;;;;3726798;37;21137;-60
2021/05/02 00:43:18;;;;;;;;;16.25;15.25;;;;;;;;3725168;38;18055;-60
2021/05/02 00:45:54;;;;;;;;;16.25;15.75;;;;;;;;3725412;37;21186;-62
2021/05/02 00:48:35;;;;;;;;;17.75;16.50;;;;;;;;3725684;37;21190;-60
2021/05/02 00:51:03;;;;;;;;;17.25;15.75;;;;;;;;3730686;38;21188;-60
2021/05/02 00:53:48;;;;;;;;;15.75;15.75;;;;;;;;3725915;38;21156;-60
2021/05/02 00:56:22;;;;;;;;;16.00;13.50;;;;;;;;3725180;37;21145;-59
2021/05/02 00:59:06;;;;;;;;;17.00;17.00;;;;;;;;3725374;37;21178;-61
2021/05/02 01:01:45;;;;;;;;;18.25;18.25;;;;;;;;3725131;37;21152;-60
2021/05/02 01:04:12;;;;;;;;;19.50;17.50;;;;;;;;3724687;38;21115;-60
2021/05/02 01:06:41;;;;;;;;;18.75;18.25;;;;;;;;3724868;37;21112;-60
2021/05/02 01:09:16;;;;;;;;;15.00;14.25;;;;;;;;3724342;38;21117;-60
2021/05/02 01:11:42;;;;;;;;;18.00;18.00;;;;;;;;3724851;38;21139;-59
2021/05/02 01:14:11;;;;;;;;;18.25;17.50;;;;;;;;3724387;37;21119;-59
2021/05/02 01:16:40;;;;;;;;;16.00;15.25;;;;;;;;3724782;38;21117;-60
2021/05/02 01:19:10;;;;;;;;;18.50;16.75;;;;;;;;3724794;38;21103;-61
2021/05/02 01:21:37;;;;;;;;;20.50;17.75;;;;;;;;3724929;37;18014;-61
2021/05/02 01:24:04;;;;;;;;;17.00;17.00;;;;;;;;3724865;37;21114;-60
2021/05/02 01:26:45;;;;;;;;;23.25;20.25;;;;;;;;3724752;37;21093;-61
2021/05/02 01:29:11;;;;;;;;;18.50;18.00;;;;;;;;3724466;37;21092;-60
2021/05/02 01:31:37;;;;;;;;;21.50;21.00;;;;;;;;3724786;37;21083;-60
2021/05/02 01:34:04;;;;;;;;;21.50;20.50;;;;;;;;3724515;38;21045;-60
2021/05/02 01:36:29;;;;;;;;;20.75;20.75;;;;;;;;3724819;38;21025;-60
2021/05/02 01:38:56;;;;;;;;;22.50;22.00;;;;;;;;3724972;37;21166;-61
2021/05/02 01:41:23;;;;;;;;;18.00;17.50;;;;;;;;3725085;37;17959;-61
2021/05/02 01:43:49;;;;;;;;;24.75;23.00;;;;;;;;3725007;38;21089;-61
2021/05/02 01:46:19;;;;;;;;;19.00;18.25;;;;;;;;3724829;37;21079;-61
2021/05/02 01:48:45;;;;;;;;;22.00;21.50;;;;;;;;3724584;37;21086;-61
2021/05/02 01:51:13;;;;;;;;;19.25;18.75;;;;;;;;3724680;37;21104;-61
2021/05/02 01:53:40;;;;;;;;;24.50;22.25;;;;;;;;3724895;38;21047;-61
2021/05/02 01:56:07;;;;;;;;;20.25;17.75;;;;;;;;3724738;38;21008;-60
2021/05/02 01:58:34;;;;;;;;;22.50;22.25;;;;;;;;3724825;37;21080;-60
2021/05/02 02:01:01;;;;;;;;;20.00;20.00;;;;;;;;3725005;38;17948;-60
2021/05/02 02:03:27;;;;;;;;;21.75;20.75;;;;;;;;3725005;37;21047;-61
2021/05/02 02:05:53;;;;;;;;;26.00;23.50;;;;;;;;3724893;38;21034;-61
2021/05/02 02:08:20;;;;;;;;;19.75;19.25;;;;;;;;3724824;37;17937;-61
2021/05/02 02:10:48;;;;;;;;;22.25;20.50;;;;;;;;3724442;38;17930;-61
2021/05/02 02:13:16;;;;;;;;;19.25;18.25;;;;;;;;3724346;37;21001;-61
2021/05/02 02:15:46;;;;;;;;;23.00;22.75;;;;;;;;3724451;37;21006;-61
2021/05/02 02:18:16;;;;;;;;;21.00;19.50;;;;;;;;3724850;38;21015;-61
2021/05/02 02:20:47;;;;;;;;;21.50;21.50;;;;;;;;3724828;37;21001;-61
2021/05/02 02:23:32;;;;;;;;;23.00;22.25;;;;;;;;3724660;38;20791;-60
2021/05/02 02:26:11;;;;;;;;;21.25;20.50;;;;;;;;3724853;37;20995;-60
2021/05/02 02:28:38;;;;;;;;;20.50;20.50;;;;;;;;3724889;37;21001;-60
2021/05/02 02:31:06;;;;;;;;;21.75;21.75;;;;;;;;3724891;37;20982;-61
2021/05/02 02:33:33;;;;;;;;;21.75;21.00;;;;;;;;3724788;37;20983;-60
2021/05/02 02:36:00;;;;;;;;;22.00;22.00;;;;;;;;3724786;38;20961;-60
2021/05/02 02:38:27;;;;;;;;;21.75;20.25;;;;;;;;3724780;37;20987;-61
2021/05/02 02:40:54;;;;;;;;;23.00;22.25;;;;;;;;3724898;37;20955;-61
2021/05/02 02:43:45;;;;;;;;;23.50;21.25;;;;;;;;3724772;38;20965;-61
2021/05/02 02:46:15;;;;;;;;;23.25;22.00;;;;;;;;3724682;37;20971;-59
2021/05/02 02:48:44;;;;;;;;;23.50;22.75;;;;;;;;3724726;38;20968;-61
2021/05/02 02:51:12;;;;;;;;;22.50;20.75;;;;;;;;3724729;37;20967;-59
2021/05/02 02:53:39;;;;;;;;;25.00;25.00;;;;;;;;3724806;37;20959;-59
2021/05/02 02:56:09;;;;;;;;;21.50;21.00;;;;;;;;3724820;38;20976;-59
2021/05/02 02:58:36;;;;;;;;;25.75;24.75;;;;;;;;3724932;37;20635;-60
2021/05/02 03:01:05;;;;;;;;;25.00;24.75;;;;;;;;3724391;37;20939;-60
2021/05/02 03:03:31;;;;;;;;;25.00;22.25;;;;;;;;3724964;37;20593;-60
2021/05/02 03:05:59;;;;;;;;;27.50;26.50;;;;;;;;3724792;37;20931;-60
2021/05/02 03:08:26;;;;;;;;;26.25;24.25;;;;;;;;3724670;38;20960;-60
2021/05/02 03:10:52;;;;;;;;;27.25;26.75;;;;;;;;3724797;37;20932;-62
2021/05/02 03:13:18;;;;;;;;;25.50;24.25;;;;;;;;3724704;37;20929;-61
2021/05/02 03:15:44;;;;;;;;;28.00;26.00;;;;;;;;3724750;37;17861;-61
2021/05/02 03:18:33;;;;;;;;;24.25;24.00;;;;;;;;3724735;37;17864;-61
2021/05/02 03:21:04;;;;;;;;;22.50;22.50;;;;;;;;3724366;38;20856;-62
2021/05/02 03:23:41;;;;;;;;;28.25;26.00;;;;;;;;3724722;37;20934;-62
2021/05/02 03:26:08;;;;;;;;;25.50;25.25;;;;;;;;3724706;38;20932;-62
2021/05/02 03:28:44;;;;;;;;;22.00;22.00;;;;;;;;3725073;38;20906;-62
2021/05/02 03:31:12;;;;;;;;;26.75;26.25;;;;;;;;3724648;38;20892;-62
2021/05/02 03:33:46;;;;;;;;;23.75;23.25;;;;;;;;3724225;37;20935;-61
2021/05/02 03:36:15;;;;;;;;;27.25;25.50;;;;;;;;3724838;37;20890;-62
2021/05/02 03:38:50;;;;;;;;;29.75;28.75;;;;;;;;3724662;38;20886;-62
2021/05/02 03:41:17;;;;;;;;;28.50;28.25;;;;;;;;3724764;38;20906;-61
2021/05/02 03:43:43;;;;;;;;;28.50;28.00;;;;;;;;3724823;38;20874;-61
2021/05/02 03:46:25;;;;;;;;;25.75;25.00;;;;;;;;3724811;37;20884;-61
2021/05/02 03:48:58;;;;;;;;;27.00;27.00;;;;;;;;3725078;38;20890;-62
2021/05/02 03:51:24;;;;;;;;;25.50;24.25;;;;;;;;3724994;38;20834;-61
2021/05/02 03:53:50;;;;;;;;;30.00;28.75;;;;;;;;3725036;37;20884;-61
2021/05/02 03:56:37;;;;;;;;;29.25;28.25;;;;;;;;3724525;38;20885;-61
2021/05/02 03:59:22;;;;;;;;;32.25;30.25;;;;;;;;3725017;37;20872;-62
2021/05/02 04:01:55;;;;;;;;;29.50;28.75;;;;;;;;3724759;37;20567;-62
2021/05/02 04:04:25;;;;;;;;;17.50;17.50;;;;;;;;3724820;37;20842;-62
2021/05/02 04:06:52;;;;;;;;;27.75;26.25;;;;;;;;3724924;38;20828;-62
2021/05/02 04:09:20;;;;;;;;;27.00;27.00;;;;;;;;3724437;37;20802;-63
2021/05/02 04:11:46;;;;;;;;;27.25;26.25;;;;;;;;3724886;37;20854;-61
2021/05/02 04:14:12;;;;;;;;;28.75;28.75;;;;;;;;3725008;38;20838;-62
2021/05/02 04:16:38;;;;;;;;;27.00;27.00;;;;;;;;3725021;37;17781;-62
2021/05/02 04:19:05;;;;;;;;;30.00;28.00;;;;;;;;3724969;37;20845;-61
2021/05/02 04:21:32;;;;;;;;;27.00;26.00;;;;;;;;3725021;38;20916;-62
2021/05/02 04:23:58;;;;;;;;;27.25;27.00;;;;;;;;3724652;38;20827;-61
2021/05/02 04:26:27;;;;;;;;;24.75;24.75;;;;;;;;3724518;38;20825;-61
2021/05/02 04:28:53;;;;;;;;;24.75;23.75;;;;;;;;3724902;37;20817;-61
2021/05/02 04:31:19;;;;;;;;;30.00;27.00;;;;;;;;3724598;37;20937;-62
2021/05/02 04:33:45;;;;;;;;;26.75;25.75;;;;;;;;3724856;38;20827;-61
2021/05/02 04:36:11;;;;;;;;;25.25;25.25;;;;;;;;3725016;38;17743;-61
2021/05/02 04:38:37;;;;;;;;;26.50;26.25;;;;;;;;3725064;37;20809;-60
2021/05/02 04:41:04;;;;;;;;;26.75;23.50;;;;;;;;3724936;38;17739;-62
2021/05/02 04:43:30;;;;;;;;;26.75;26.50;;;;;;;;3725031;37;17655;-60
2021/05/02 04:45:55;;;;;;;;;27.25;27.25;;;;;;;;3724782;37;20777;-61
2021/05/02 04:48:22;;;;;;;;;28.00;27.50;;;;;;;;3724788;38;20804;-63
2021/05/02 04:50:48;;;;;;;;;29.75;28.50;;;;;;;;3724913;37;17714;-64
2021/05/02 04:53:14;;;;;;;;;25.75;25.75;;;;;;;;3724713;37;20780;-64
2021/05/02 04:55:39;;;;;;;;;28.50;28.50;;;;;;;;3724883;38;17703;-63
2021/05/02 04:58:08;;;;;;;;;29.00;29.00;;;;;;;;3725012;37;17716;-65
2021/05/02 05:00:34;;;;;;;;;27.50;27.00;;;;;;;;3724796;38;17713;-64
2021/05/02 05:03:01;;;;;;;;;26.00;26.00;;;;;;;;3724871;37;20795;-64
2021/05/02 05:05:27;;;;;;;;;28.50;26.75;;;;;;;;3724786;38;17688;-64
2021/05/02 05:08:03;;;;;;;;;33.25;30.25;;;;;;;;3724064;37;20772;-63
2021/05/02 05:10:29;;;;;;;;;26.75;26.75;;;;;;;;3724785;37;20774;-63
2021/05/02 05:12:54;;;;;;;;;31.25;30.00;;;;;;;;3724836;37;20746;-64
2021/05/02 05:15:21;;;;;;;;;32.75;30.75;;;;;;;;3724949;38;17708;-63
2021/05/02 05:17:47;;;;;;;;;34.50;31.75;;;;;;;;3725251;37;20747;-63
2021/05/02 05:20:13;;;;;;;;;28.25;27.25;;;;;;;;3725053;38;17816;-63
2021/05/02 05:22:38;;;;;;;;;26.00;26.00;;;;;;;;3724919;38;17700;-64
2021/05/02 05:25:07;;;;;;;;;25.50;25.50;;;;;;;;3724983;37;17697;-64
2021/05/02 05:27:33;;;;;;;;;28.50;26.75;;;;;;;;3724908;37;17677;-61
2021/05/02 05:29:59;;;;;;;;;26.50;26.25;;;;;;;;3724963;38;20718;-63
2021/05/02 05:32:25;;;;;;;;;26.00;26.00;;;;;;;;3725043;38;17664;-63
2021/05/02 05:34:55;;;;;;;;;28.50;28.25;;;;;;;;3724700;38;17661;-63
2021/05/02 05:37:22;;;;;;;;;25.75;25.75;;;;;;;;3724900;38;20740;-67
2021/05/02 05:39:48;;;;;;;;;29.50;28.50;;;;;;;;3724543;37;17656;-65
2021/05/02 05:42:14;;;;;;;;;27.00;26.50;;;;;;;;3724971;37;20744;-66
2021/05/02 05:44:39;;;;;;;;;26.25;26.00;;;;;;;;3724919;38;20793;-66
2021/05/02 05:47:05;;;;;;;;;25.50;25.50;;;;;;;;3725046;37;17664;-68
2021/05/02 05:49:32;;;;;;;;;27.00;26.75;;;;;;;;3724988;37;18632;-67
2021/05/02 05:51:58;;;;;;;;;26.25;26.25;;;;;;;;3724871;37;21786;-66
2021/05/02 05:54:25;;;;;;;;;29.25;28.25;;;;;;;;3724857;38;17650;-68
2021/05/02 05:56:51;;;;;;;;;29.00;26.00;;;;;;;;3724447;38;21698;-65
2021/05/02 05:59:19;;;;;;;;;26.00;24.75;;;;;;;;3724419;37;20705;-67
2021/05/02 06:01:51;;;;;;;;;27.25;27.00;;;;;;;;3724602;38;18642;-65
2021/05/02 06:04:18;;;;;;;;;29.00;25.75;;;;;;;;3724602;37;21682;-67
2021/05/02 06:06:48;;;;;;;;;28.00;28.00;;;;;;;;3724764;38;20710;-67
2021/05/02 06:09:15;;;;;;;;;31.00;29.25;;;;;;;;3725067;38;21676;-67
2021/05/02 06:11:41;;;;;;;;;28.25;26.75;;;;;;;;3724932;38;21695;-66
2021/05/02 06:14:08;;;;;;;;;27.25;27.00;;;;;;;;3724809;37;21769;-63
2021/05/02 06:16:35;;;;;;;;;25.25;24.25;;;;;;;;3724578;37;21701;-67
2021/05/02 06:19:16;;;;;;;;;30.00;30.00;;;;;;;;3724522;38;21685;-67
2021/05/02 06:21:42;;;;;;;;;26.75;26.75;;;;;;;;3724604;38;21683;-69
2021/05/02 06:24:08;;;;;;;;;28.75;27.75;;;;;;;;3724465;37;21664;-65
2021/05/02 06:26:34;;;;;;;;;26.25;25.25;;;;;;;;3724245;38;21678;-63
2021/05/02 06:29:00;;;;;;;;;25.00;24.25;;;;;;;;3723727;38;21654;-69
2021/05/02 06:31:26;;;;;;;;;32.00;30.25;;;;;;;;3724337;38;18610;-64
2021/05/02 06:33:52;;;;;;;;;34.50;32.75;;;;;;;;3724249;38;21654;-68
2021/05/02 06:36:17;;;;;;;;;37.25;32.75;;;;;;;;3723771;38;18610;-65
2021/05/02 06:38:43;;;;;;;;;35.00;32.50;;;;;;;;3723896;38;18563;-64
2021/05/02 06:41:09;;;;;;;;;29.75;28.25;;;;;;;;3724619;37;18567;-65
2021/05/02 06:43:35;;;;;;;;;24.25;24.25;;;;;;;;3725017;37;18583;-66
2021/05/02 06:46:00;;;;;;;;;25.00;23.50;;;;;;;;3725083;37;18567;-64
2021/05/02 06:48:26;;;;;;;;;25.50;24.50;;;;;;;;3725038;37;18557;-65
2021/05/02 06:50:52;;;;;;;;;22.25;21.75;;;;;;;;3725117;38;18567;-66
2021/05/02 06:53:18;;;;;;;;;21.50;21.25;;;;;;;;3724758;37;21619;-65
2021/05/02 06:55:44;;;;;;;;;21.75;21.75;;;;;;;;3724844;38;18552;-65
2021/05/02 06:58:11;;;;;;;;;19.50;19.00;;;;;;;;3724976;37;18544;-65
2021/05/02 07:00:37;;;;;;;;;17.25;17.25;;;;;;;;3724896;38;21686;-66
2021/05/02 07:03:07;;;;;;;;;21.50;21.25;;;;;;;;3724985;37;21530;-68
2021/05/02 07:05:33;;;;;;;;;22.00;21.50;;;;;;;;3724855;37;21627;-66
2021/05/02 07:07:59;;;;;;;;;13.50;11.25;;;;;;;;3724800;38;21617;-67
2021/05/02 07:10:26;;;;;;;;;20.75;19.00;;;;;;;;3724852;37;21663;-69
2021/05/02 07:12:53;;;;;;;;;19.00;18.25;;;;;;;;3725009;37;18539;-66
2021/05/02 07:15:19;;;;;;;;;19.50;19.50;;;;;;;;3724789;38;21660;-64
2021/05/02 07:17:44;;;;;;;;;24.00;21.00;;;;;;;;3724892;37;18509;-63
2021/05/02 07:20:13;;;;;;;;;21.25;20.75;;;;;;;;3724874;37;18533;-63
2021/05/02 07:22:39;;;;;;;;;21.75;21.00;;;;;;;;3724512;37;18525;-63
2021/05/02 07:25:07;;;;;;;;;23.50;22.50;;;;;;;;3724693;37;21603;-63
2021/05/02 07:27:33;;;;;;;;;24.75;23.00;;;;;;;;3724764;38;21585;-62
2021/05/02 07:29:59;;;;;;;;;20.75;20.25;;;;;;;;3724840;38;21600;-63
2021/05/02 07:32:24;;;;;;;;;25.75;21.75;;;;;;;;3724525;38;21567;-67
2021/05/02 07:34:56;;;;;;;;;17.50;17.50;;;;;;;;3725157;37;18529;-66
2021/05/02 07:37:27;;;;;;;;;21.00;21.00;;;;;;;;3724837;37;18516;-65
2021/05/02 07:39:52;;;;;;;;;24.50;21.75;;;;;;;;3724799;37;21517;-64
2021/05/02 07:42:20;;;;;;;;;16.25;16.25;;;;;;;;3724761;37;21508;-66
2021/05/02 07:44:47;;;;;;;;;20.75;19.00;;;;;;;;3724708;38;21608;-65
2021/05/02 07:47:13;;;;;;;;;20.75;19.25;;;;;;;;3724791;38;18473;-66
2021/05/02 07:49:40;;;;;;;;;20.50;20.50;;;;;;;;3724395;38;21551;-67
2021/05/02 07:52:05;;;;;;;;;23.75;23.25;;;;;;;;3724788;38;21534;-66
2021/05/02 07:54:32;;;;;;;;;18.00;17.25;;;;;;;;3724769;38;21560;-65
2021/05/02 07:56:58;;;;;;;;;18.50;18.50;;;;;;;;3724326;38;18487;-66
2021/05/02 07:59:24;;;;;;;;;16.75;16.25;;;;;;;;3724401;38;21605;-67
2021/05/02 08:01:51;;;;;;;;;18.50;18.00;;;;;;;;3725001;37;21476;-67
2021/05/02 08:04:18;;;;;;;;;21.00;20.00;;;;;;;;3725055;38;18697;-66
2021/05/02 08:06:44;;;;;;;;;21.50;20.75;;;;;;;;3724757;37;21572;-64
2021/05/02 08:09:18;;;;;;;;;27.00;27.00;;;;;;;;3724674;38;21578;-67
2021/05/02 08:11:44;;;;;;;;;18.50;17.50;;;;;;;;3724981;37;18444;-67
2021/05/02 08:14:13;;;;;;;;;18.00;18.00;;;;;;;;3724859;38;21585;-67
2021/05/02 08:16:40;;;;;;;;;20.00;18.25;;;;;;;;3724996;38;18440;-67
2021/05/02 08:19:06;;;;;;;;;19.25;19.00;;;;;;;;3724803;37;21584;-66
2021/05/02 08:21:32;;;;;;;;;15.00;15.00;;;;;;;;3724921;37;21575;-68
2021/05/02 08:24:04;;;;;;;;;13.00;13.00;;;;;;;;3724717;37;21548;-66
2021/05/02 08:26:31;;;;;;;;;21.75;20.00;;;;;;;;3724957;38;21597;-67
2021/05/02 08:28:56;;;;;;;;;20.00;20.00;;;;;;;;3724847;38;21561;-67
2021/05/02 08:31:23;;;;;;;;;18.00;18.00;;;;;;;;3724997;37;18448;-68
2021/05/02 08:33:48;;;;;;;;;20.75;20.50;;;;;;;;3724981;37;18440;-66
2021/05/02 08:36:17;;;;;;;;;17.00;16.50;;;;;;;;3724758;38;21482;-67
2021/05/02 08:38:43;;;;;;;;;17.00;15.25;;;;;;;;3724507;37;18438;-66
2021/05/02 08:41:12;;;;;;;;;19.75;18.75;;;;;;;;3724405;37;21466;-67
2021/05/02 08:43:38;;;;;;;;;17.00;17.00;;;;;;;;3724247;38;21492;-66
2021/05/02 08:46:05;;;;;;;;;16.50;15.75;;;;;;;;3725237;37;18406;-66
2021/05/02 08:48:32;;;;;;;;;15.25;15.25;;;;;;;;3724885;37;21681;-65
2021/05/02 08:50:58;;;;;;;;;13.00;13.00;;;;;;;;3726928;37;21497;-65
2021/05/02 08:53:27;;;;;;;;;16.75;14.50;;;;;;;;3724985;38;21552;-66
2021/05/02 08:55:56;;;;;;;;;13.75;13.75;;;;;;;;3724368;38;21484;-66
2021/05/02 08:58:23;;;;;;;;;13.75;12.75;;;;;;;;3725025;38;21513;-65
2021/05/02 09:00:53;;;;;;;;;14.00;13.00;;;;;;;;3724985;38;21542;-66
2021/05/02 09:03:39;;;;;;;;;10.50;10.50;;;;;;;;3725005;37;21781;-67
2021/05/02 09:06:17;;;;;;;;;14.25;11.75;;;;;;;;3725151;37;21446;-67
2021/05/02 09:08:44;;;;;;;;;10.00;9.75;;;;;;;;3724885;38;21479;-67
2021/05/02 09:11:15;;;;;;;;;15.25;14.00;;;;;;;;3724879;37;21337;-66
2021/05/02 09:13:47;;;;;;;;;8.00;8.00;;;;;;;;3724994;37;21511;-66
2021/05/02 09:16:14;;;;;;;;;13.25;12.75;;;;;;;;3724944;38;21394;-66
2021/05/02 09:18:49;;;;;;;;;10.75;9.00;;;;;;;;3724486;37;21533;-68
2021/05/02 09:21:26;;;;;;;;;10.00;8.75;;;;;;;;3725063;37;21602;-66
2021/05/02 09:23:51;;;;;;;;;9.50;7.00;;;;;;;;3725018;38;21565;-66
2021/05/02 09:26:19;;;;;;;;;9.00;9.00;;;;;;;;3724913;38;21560;-67
2021/05/02 09:28:53;;;;;;;;;10.00;10.00;;;;;;;;3724963;37;18353;-66
2021/05/02 09:31:23;;;;;;;;;7.00;7.00;;;;;;;;3725126;37;21587;-67
2021/05/02 09:33:49;;;;;;;;;6.50;6.50;;;;;;;;3724950;37;21351;-67
2021/05/02 09:36:19;;;;;;;;;10.25;10.25;;;;;;;;3724789;37;21529;-67
2021/05/02 09:38:45;;;;;;;;;9.00;9.00;;;;;;;;3725069;38;21357;-67
2021/05/02 09:41:12;;;;;;;;;8.25;7.00;;;;;;;;3724775;37;21349;-66
2021/05/02 09:43:49;;;;;;;;;10.25;9.25;;;;;;;;3724948;37;21483;-66
2021/05/02 09:46:36;;;;;;;;;7.00;6.75;;;;;;;;3725073;38;21425;-67
2021/05/02 09:49:13;;;;;;;;;8.00;8.00;;;;;;;;3725084;37;21299;-68
2021/05/02 09:51:53;;;;;;;;;9.75;9.00;;;;;;;;3725208;37;21307;-67
2021/05/02 09:54:19;;;;;;;;;9.25;9.25;;;;;;;;3725289;38;21311;-66
2021/05/02 09:56:47;;;;;;;;;13.50;13.00;;;;;;;;3724719;37;21384;-65
2021/05/02 09:59:20;;;;;;;;;10.00;10.00;;;;;;;;3725537;37;21364;-66
2021/05/02 10:02:17;;;;;;;;;13.25;12.50;;;;;;;;3730441;37;21374;-67
2021/05/02 10:04:45;;;;;;;;;11.50;10.50;;;;;;;;3733570;38;21434;-67
2021/05/02 10:07:12;;;;;;;;;9.25;9.25;;;;;;;;3733673;37;21361;-66
2021/05/02 10:09:39;;;;;;;;;11.75;11.75;;;;;;;;3725652;38;21264;-65
2021/05/02 10:12:05;;;;;;;;;9.00;9.00;;;;;;;;3727506;38;21394;-64
2021/05/02 10:14:32;;;;;;;;;10.25;10.25;;;;;;;;3737822;38;21344;-66
2021/05/02 10:17:00;;;;;;;;;12.00;11.25;;;;;;;;3737522;37;21357;-66
2021/05/02 10:19:28;;;;;;;;;10.00;10.00;;;;;;;;3736741;38;21334;-64
2021/05/02 10:21:55;;;;;;;;;10.00;9.25;;;;;;;;3738253;37;21340;-65
2021/05/02 10:24:21;;;;;;;;;14.00;13.50;;;;;;;;3738290;38;21273;-65
2021/05/02 10:26:50;;;;;;;;;15.00;14.00;;;;;;;;3734387;38;21400;-66
2021/05/02 10:29:26;;;;;;;;;15.00;15.00;;;;;;;;3734472;37;21356;-67
2021/05/02 10:31:57;;;;;;;;;7.75;7.75;;;;;;;;3730848;38;21360;-67
2021/05/02 10:34:36;;;;;;;;;7.00;7.00;;;;;;;;3725270;38;21247;-66
2021/05/02 10:37:20;;;;;;;;;4.50;4.50;;;;;;;;3725114;37;21249;-67
2021/05/02 10:40:13;;;;;;;;;14.25;14.25;;;;;;;;3725097;37;21279;-66
2021/05/02 10:42:40;;;;;;;;;10.50;10.25;;;;;;;;3724868;38;21364;-66
2021/05/02 10:45:24;;;;;;;;;11.50;11.00;;;;;;;;3724872;37;21312;-67
2021/05/02 10:47:50;;;;;;;;;11.00;11.00;;;;;;;;3724949;37;21281;-67
2021/05/02 10:50:29;;;;;;;;;14.00;13.25;;;;;;;;3725045;38;21292;-65
2021/05/02 10:53:17;;;;;;;;;11.00;10.75;;;;;;;;3725042;37;18242;-66
2021/05/02 10:55:48;;;;;;;;;16.00;16.00;;;;;;;;3724787;37;21257;-68
2021/05/02 10:58:24;;;;;;;;;12.75;12.50;;;;;;;;3724885;38;21329;-66
2021/05/02 11:00:55;;;;;;;;;12.50;11.00;;;;;;;;3724965;37;21313;-67
2021/05/02 11:03:51;;;;;;;;;15.25;13.50;;;;;;;;3725363;38;21293;-67
2021/05/02 11:06:36;;;;;;;;;16.75;16.00;;;;;;;;3724722;38;21347;-67
2021/05/02 11:09:03;;;;;;;;;15.25;15.25;;;;;;;;3725060;37;21337;-66
2021/05/02 11:11:39;;;;;;;;;17.25;15.50;;;;;;;;3724995;37;21311;-66
2021/05/02 11:14:27;;;;;;;;;16.50;15.75;;;;;;;;3724929;38;21304;-66
2021/05/02 11:17:18;;;;;;;;;16.50;16.00;;;;;;;;3724983;37;21279;-65
2021/05/02 11:19:50;;;;;;;;;16.33;16.33;;;;;;;;3724857;37;21320;-67
2021/05/02 11:22:17;;;;;;;;;13.00;13.00;;;;;;;;3724841;37;21287;-66
2021/05/02 11:24:52;;;;;;;;;14.75;14.75;;;;;;;;3724904;37;21282;-66
2021/05/02 11:27:39;;;;;;;;;15.75;15.75;;;;;;;;3724857;37;21293;-64
2021/05/02 11:30:16;;;;;;;;;15.50;14.75;;;;;;;;3726601;38;21322;-66
2021/05/02 11:32:43;;;;;;;;;11.75;11.25;;;;;;;;3725313;38;21311;-66
2021/05/02 11:35:13;;;;;;;;;18.00;15.25;;;;;;;;3724856;38;21275;-66
2021/05/02 11:37:51;;;;;;;;;14.00;12.50;;;;;;;;3724998;38;21302;-66
2021/05/02 11:40:35;;;;;;;;;14.50;13.00;;;;;;;;3724894;37;21210;-66
2021/05/02 11:43:16;;;;;;;;;16.00;15.50;;;;;;;;3725009;37;21244;-66
2021/05/02 11:45:51;;;;;;;;;15.00;15.00;;;;;;;;3724798;38;21264;-65
2021/05/02 11:48:19;;;;;;;;;13.25;13.25;;;;;;;;3724309;38;21275;-65
2021/05/02 11:50:46;;;;;;;;;13.50;13.50;;;;;;;;3724828;37;21256;-64
2021/05/02 11:53:13;;;;;;;;;12.25;11.50;;;;;;;;3725075;37;21246;-65
2021/05/02 11:55:40;;;;;;;;;15.75;15.00;;;;;;;;3724440;37;21209;-64
2021/05/02 11:58:13;;;;;;;;;12.00;12.00;;;;;;;;3724975;37;21248;-64
2021/05/02 12:00:49;;;;;;;;;15.00;15.00;;;;;;;;3724862;37;21256;-67
2021/05/02 12:03:16;;;;;;;;;11.00;11.00;;;;;;;;3724959;37;21240;-66
2021/05/02 12:05:51;;;;;;;;;16.25;16.00;;;;;;;;3725020;37;21189;-67
2021/05/02 12:08:17;;;;;;;;;15.25;15.25;;;;;;;;3724954;37;21196;-66
2021/05/02 12:10:44;;;;;;;;;14.25;13.50;;;;;;;;3724886;37;21220;-67
2021/05/02 12:13:28;;;;;;;;;15.25;15.00;;;;;;;;3724924;38;21186;-67
2021/05/02 12:16:12;;;;;;;;;15.25;15.25;;;;;;;;3725019;37;21245;-68
2021/05/02 12:18:45;;;;;;;;;17.00;17.00;;;;;;;;3724725;37;21234;-67
2021/05/02 12:21:19;;;;;;;;;17.75;16.50;;;;;;;;3724871;38;21226;-66
2021/05/02 12:23:46;;;;;;;;;15.00;14.75;;;;;;;;3724985;37;21245;-66
2021/05/02 12:26:13;;;;;;;;;14.25;13.75;;;;;;;;3724436;37;21224;-65
2021/05/02 12:28:40;;;;;;;;;10.75;10.75;;;;;;;;3724858;38;21262;-65
2021/05/02 12:31:07;;;;;;;;;11.50;10.50;;;;;;;;3724920;38;21189;-66
2021/05/02 12:33:37;;;;;;;;;18.50;16.50;;;;;;;;3724363;38;21193;-66
2021/05/02 12:36:07;;;;;;;;;16.25;16.25;;;;;;;;3724691;38;21224;-66
2021/05/02 12:38:33;;;;;;;;;18.50;17.25;;;;;;;;3724822;37;21204;-67
2021/05/02 12:41:05;;;;;;;;;14.75;14.75;;;;;;;;3724839;38;21198;-67
2021/05/02 12:43:33;;;;;;;;;16.75;16.50;;;;;;;;3724916;38;21161;-64
2021/05/02 12:45:59;;;;;;;;;15.50;15.00;;;;;;;;3724703;37;21160;-64
2021/05/02 12:48:36;;;;;;;;;17.00;16.25;;;;;;;;3724703;38;21161;-68
2021/05/02 12:51:02;;;;;;;;;14.50;14.50;;;;;;;;3725521;37;21163;-66
2021/05/02 12:53:43;;;;;;;;;14.25;14.25;;;;;;;;3725310;37;21177;-64
2021/05/02 12:56:09;;;;;;;;;10.50;9.50;;;;;;;;3723864;38;20823;-66
2021/05/02 12:58:36;;;;;;;;;10.50;10.50;;;;;;;;3723870;37;21102;-67
2021/05/02 13:01:14;;;;;;;;;11.50;11.50;;;;;;;;3723849;37;21154;-67
2021/05/02 13:03:45;;;;;;;;;10.25;9.75;;;;;;;;3723852;38;21162;-66
2021/05/02 13:06:16;;;;;;;;;10.00;10.00;;;;;;;;3723638;37;21102;-66
2021/05/02 13:09:03;;;;;;;;;11.00;10.00;;;;;;;;3723990;38;21110;-66
2021/05/02 13:11:30;;;;;;;;;13.25;12.50;;;;;;;;3724025;37;21128;-65
2021/05/02 13:14:11;;;;;;;;;11.25;8.50;;;;;;;;3723936;38;21101;-66
2021/05/02 13:16:44;;;;;;;;;13.25;13.00;;;;;;;;3724669;38;21083;-66
2021/05/02 13:19:35;;;;;;;;;12.00;12.00;;;;;;;;3725007;37;21153;-65
2021/05/02 13:22:17;;;;;;;;;11.00;11.00;;;;;;;;3724680;37;21101;-65
2021/05/02 13:25:16;;;;;;;;;11.75;11.25;;;;;;;;3724840;38;21052;-65
2021/05/02 13:27:43;;;;;;;;;9.75;8.25;;;;;;;;3724953;38;21086;-64
2021/05/02 13:30:13;;;;;;;;;8.75;8.00;;;;;;;;3724379;38;21014;-64
2021/05/02 13:32:54;;;;;;;;;8.00;8.00;;;;;;;;3724739;37;20936;-65
2021/05/02 13:35:19;;;;;;;;;7.00;6.75;;;;;;;;3724565;38;21039;-64
2021/05/02 13:37:45;;;;;;;;;8.00;8.00;;;;;;;;3724749;37;20491;-65
2021/05/02 13:40:11;;;;;;;;;10.25;9.75;;;;;;;;3724827;37;18040;-65
2021/05/02 13:42:39;;;;;;;;;7.50;7.00;;;;;;;;3725018;38;18000;-65
2021/05/02 13:45:05;;;;;;;;;8.50;8.00;;;;;;;;3724895;38;21013;-66
2021/05/02 13:47:32;;;;;;;;;7.00;6.00;;;;;;;;3725013;37;20992;-67
2021/05/02 13:49:58;;;;;;;;;3.50;3.00;;;;;;;;3724447;37;20990;-66
2021/05/02 13:52:25;;;;;;;;;4.25;3.50;;;;;;;;3724247;38;21013;-67
2021/05/02 13:54:53;;;;;;;;;3.75;3.50;;;;;;;;3724427;38;21030;-66
2021/05/02 13:57:19;;;;;;;;;4.25;4.25;;;;;;;;3724405;38;20962;-65
2021/05/02 13:59:46;;;;;;;;;9.50;6.00;;;;;;;;3724527;38;20956;-65
2021/05/02 14:02:11;;;;;;;;;5.00;4.00;;;;;;;;3724371;38;21000;-64
2021/05/02 14:04:37;;;;;;;;;4.25;3.25;;;;;;;;3724892;37;20999;-63
2021/05/02 14:07:03;;;;;;;;;3.50;2.00;;;;;;;;3725093;37;17981;-62
2021/05/02 14:09:29;;;;;;;;;4.00;2.00;;;;;;;;3725151;38;17971;-62
2021/05/02 14:11:55;;;;;;;;;3.50;2.75;;;;;;;;3725383;37;21155;-63
2021/05/02 14:14:20;;;;;;;;;2.00;2.00;;;;;;;;3724988;38;17997;-63
2021/05/02 14:16:46;;;;;;;;;2.00;2.00;;;;;;;;3725795;37;17946;-64
2021/05/02 14:19:12;;;;;;;;;6.00;5.00;;;;;;;;3724965;37;17965;-63
2021/05/02 14:21:38;;;;;;;;;8.25;8.00;;;;;;;;3725027;37;17976;-66
2021/05/02 14:24:05;;;;;;;;;5.00;4.75;;;;;;;;3725108;37;17959;-65
2021/05/02 14:26:31;;;;;;;;;4.00;3.00;;;;;;;;3725306;37;17967;-66
2021/05/02 14:28:57;;;;;;;;;7.25;6.25;;;;;;;;3725301;38;21115;-64
2021/05/02 14:31:23;;;;;;;;;6.50;5.25;;;;;;;;3725048;37;20961;-67
2021/05/02 14:33:48;;;;;;;;;3.25;3.25;;;;;;;;3725263;37;17937;-66
2021/05/02 14:36:14;;;;;;;;;4.25;3.75;;;;;;;;3725165;37;17943;-67